createdAt,value
2023-04-30T00:00:52.200Z,6.03
2023-04-30T00:03:18.873Z,6.15
2023-04-30T00:05:45.670Z,7.20
2023-04-30T00:08:12.152Z,4.88
2023-04-30T00:10:38.976Z,15.93
2023-04-30T00:13:05.453Z,9.88
2023-04-30T00:15:32.052Z,6.15
2023-04-30T00:17:58.579Z,5.80
2023-04-30T00:20:25.497Z,7.03
2023-04-30T00:22:52.065Z,9.63
2023-04-30T00:25:18.657Z,5.25
2023-04-30T00:27:45.176Z,7.03
2023-04-30T00:30:12.204Z,9.43
2023-04-30T00:32:40.741Z,5.60
2023-04-30T00:35:07.706Z,6.10
2023-04-30T00:37:34.212Z,8.55
2023-04-30T00:40:01.175Z,7.63
2023-04-30T00:42:27.768Z,6.75
2023-04-30T00:44:54.267Z,4.90
2023-04-30T00:47:21.083Z,5.78
2023-04-30T00:49:48.229Z,6.10
2023-04-30T00:52:14.992Z,6.18
2023-04-30T00:54:41.774Z,5.03
2023-04-30T00:57:12.027Z,4.70
2023-04-30T00:59:38.750Z,4.80
2023-04-30T01:02:05.811Z,6.88
2023-04-30T01:04:33.520Z,7.68
2023-04-30T01:07:02.151Z,4.07
2023-04-30T01:09:29.617Z,4.75
2023-04-30T01:12:13.372Z,6.35
2023-04-30T01:14:57.106Z,8.18
2023-04-30T01:17:33.779Z,4.70
2023-04-30T01:20:01.597Z,6.30
2023-04-30T01:22:28.312Z,10.18
2023-04-30T01:25:19.606Z,5.18
2023-04-30T01:28:01.357Z,6.88
2023-04-30T01:30:30.491Z,7.07
2023-04-30T01:32:57.278Z,7.68
2023-04-30T01:35:39.006Z,4.85
2023-04-30T01:38:20.887Z,6.38
2023-04-30T01:40:55.475Z,7.32
2023-04-30T01:43:44.304Z,9.45
2023-04-30T01:46:27.224Z,6.65
2023-04-30T01:48:58.170Z,5.32
2023-04-30T01:51:39.626Z,7.00
2023-04-30T01:54:29.461Z,5.15
2023-04-30T01:57:07.555Z,5.78
2023-04-30T01:59:39.844Z,6.75
2023-04-30T02:02:06.849Z,7.90
2023-04-30T02:04:33.450Z,4.97
2023-04-30T02:07:00.206Z,5.40
2023-04-30T02:09:26.951Z,6.63
2023-04-30T02:11:53.499Z,5.07
2023-04-30T02:14:20.040Z,9.07
2023-04-30T02:16:46.696Z,7.00
2023-04-30T02:19:13.193Z,12.90
2023-04-30T02:21:39.805Z,8.85
2023-04-30T02:24:06.657Z,5.82
2023-04-30T02:26:33.813Z,6.40
2023-04-30T02:29:00.358Z,7.47
2023-04-30T02:31:27.101Z,7.88
2023-04-30T02:33:53.732Z,7.80
2023-04-30T02:36:20.335Z,6.47
2023-04-30T02:38:47.166Z,8.07
2023-04-30T02:41:13.748Z,6.20
2023-04-30T02:43:40.542Z,5.10
2023-04-30T02:46:07.185Z,5.80
2023-04-30T02:48:33.701Z,7.22
2023-04-30T02:51:00.453Z,7.50
2023-04-30T02:53:27.013Z,9.13
2023-04-30T02:55:53.561Z,5.43
2023-04-30T02:58:20.064Z,10.15
2023-04-30T03:00:46.583Z,6.88
2023-04-30T03:03:13.472Z,7.88
2023-04-30T03:05:40.156Z,7.70
2023-04-30T03:08:06.684Z,5.53
2023-04-30T03:10:33.212Z,7.20
2023-04-30T03:12:59.786Z,6.75
2023-04-30T03:15:26.759Z,4.00
2023-04-30T03:17:53.284Z,5.78
2023-04-30T03:20:20.353Z,9.02
2023-04-30T03:22:46.909Z,7.75
2023-04-30T03:25:13.495Z,9.20
2023-04-30T03:27:40.067Z,8.00
2023-04-30T03:30:07.502Z,5.20
2023-04-30T03:32:34.144Z,8.63
2023-04-30T03:35:00.839Z,6.97
2023-04-30T03:37:27.351Z,6.57
2023-04-30T03:39:54.165Z,6.80
2023-04-30T03:42:21.095Z,6.50
2023-04-30T03:44:47.832Z,7.15
2023-04-30T03:47:14.368Z,7.45
2023-04-30T03:49:40.884Z,8.00
2023-04-30T03:52:07.551Z,4.55
2023-04-30T03:54:34.108Z,9.27
2023-04-30T03:57:04.299Z,6.32
2023-04-30T03:59:32.166Z,8.10
2023-04-30T04:02:00.822Z,13.00
2023-04-30T04:04:27.582Z,7.25
2023-04-30T04:06:54.153Z,7.53
2023-04-30T04:09:20.836Z,6.72
2023-04-30T04:11:47.358Z,12.68
2023-04-30T04:14:14.117Z,6.55
2023-04-30T04:16:42.343Z,6.57
2023-04-30T04:19:09.129Z,8.68
2023-04-30T04:21:36.582Z,5.30
2023-04-30T04:24:08.688Z,6.45
2023-04-30T04:26:37.187Z,8.20
2023-04-30T04:29:04.714Z,6.80
2023-04-30T04:31:32.104Z,6.15
2023-04-30T04:34:00.341Z,8.00
2023-04-30T04:36:28.374Z,5.30
2023-04-30T04:39:01.878Z,8.23
2023-04-30T04:41:29.880Z,7.18
2023-04-30T04:43:56.823Z,8.38
2023-04-30T04:46:24.930Z,8.50
2023-04-30T04:48:52.247Z,6.38
2023-04-30T04:51:18.886Z,6.22
2023-04-30T04:53:45.470Z,6.68
2023-04-30T04:56:12.822Z,9.70
2023-04-30T04:58:39.886Z,7.13
2023-04-30T05:01:06.474Z,8.45
2023-04-30T05:03:36.944Z,7.03
2023-04-30T05:06:04.219Z,6.78
2023-04-30T05:08:31.638Z,17.88
2023-04-30T05:10:58.309Z,12.25
2023-04-30T05:13:24.851Z,7.97
2023-04-30T05:15:52.885Z,7.30
2023-04-30T05:18:20.328Z,6.63
2023-04-30T05:20:46.883Z,7.55
2023-04-30T05:23:13.507Z,5.82
2023-04-30T05:25:40.059Z,8.65
2023-04-30T05:28:06.643Z,9.38
2023-04-30T05:30:33.376Z,5.70
2023-04-30T05:32:59.945Z,8.52
2023-04-30T05:35:26.571Z,8.95
2023-04-30T05:37:53.334Z,6.65
2023-04-30T05:40:20.420Z,10.75
2023-04-30T05:42:46.972Z,12.80
2023-04-30T05:45:14.683Z,10.68
2023-04-30T05:47:41.504Z,6.53
2023-04-30T05:50:09.856Z,7.57
2023-04-30T05:52:36.411Z,8.95
2023-04-30T05:55:02.968Z,12.43
2023-04-30T05:57:29.648Z,6.60
2023-04-30T05:59:56.429Z,12.32
2023-04-30T06:02:23.295Z,9.30
2023-04-30T06:04:50.066Z,6.47
2023-04-30T06:07:16.539Z,7.15
2023-04-30T06:09:43.136Z,8.98
2023-04-30T06:12:10.015Z,8.57
2023-04-30T06:14:36.766Z,10.45
2023-04-30T06:17:03.356Z,8.05
2023-04-30T06:19:29.928Z,9.15
2023-04-30T06:21:56.508Z,9.65
2023-04-30T06:24:23.214Z,10.60
2023-04-30T06:26:49.831Z,7.68
2023-04-30T06:29:16.478Z,7.82
2023-04-30T06:31:43.100Z,9.68
2023-04-30T06:34:09.677Z,12.60
2023-04-30T06:36:36.218Z,7.78
2023-04-30T06:39:03.182Z,7.65
2023-04-30T06:41:29.733Z,10.15
2023-04-30T06:43:56.286Z,10.60
2023-04-30T06:46:23.060Z,12.32
2023-04-30T06:48:49.682Z,8.50
2023-04-30T06:51:16.217Z,14.68
2023-04-30T06:53:42.971Z,9.70
2023-04-30T06:56:09.583Z,11.52
2023-04-30T06:58:36.257Z,7.28
2023-04-30T07:01:03.394Z,12.52
2023-04-30T07:03:30.190Z,9.32
2023-04-30T07:05:57.430Z,6.82
2023-04-30T07:08:24.389Z,9.85
2023-04-30T07:10:50.938Z,8.10
2023-04-30T07:13:17.580Z,8.40
2023-04-30T07:15:44.532Z,9.60
2023-04-30T07:18:11.339Z,7.15
2023-04-30T07:20:38.029Z,11.85
2023-04-30T07:23:04.718Z,7.88
2023-04-30T07:25:31.365Z,7.13
2023-04-30T07:27:58.034Z,7.95
2023-04-30T07:30:25.346Z,9.60
2023-04-30T07:32:51.996Z,7.53
2023-04-30T07:35:18.958Z,8.10
2023-04-30T07:37:45.770Z,7.88
2023-04-30T07:40:15.395Z,8.07
2023-04-30T07:42:46.209Z,8.52
2023-04-30T07:45:13.402Z,7.43
2023-04-30T07:47:40.697Z,7.32
2023-04-30T07:50:07.700Z,5.82
2023-04-30T07:52:34.480Z,6.95
2023-04-30T07:55:01.004Z,8.38
2023-04-30T07:57:27.671Z,5.55
2023-04-30T07:59:54.594Z,4.97
2023-04-30T08:02:21.726Z,6.28
2023-04-30T08:04:48.775Z,7.88
2023-04-30T08:07:18.241Z,8.07
2023-04-30T08:09:44.788Z,6.10
2023-04-30T08:12:11.377Z,5.13
2023-04-30T08:14:37.974Z,8.23
2023-04-30T08:17:04.794Z,6.57
2023-04-30T08:19:31.990Z,5.40
2023-04-30T08:21:59.661Z,9.43
2023-04-30T08:24:26.348Z,6.00
2023-04-30T08:26:54.726Z,5.55
2023-04-30T08:29:21.801Z,8.10
2023-04-30T08:31:48.463Z,7.68
2023-04-30T08:34:15.159Z,5.88
2023-04-30T08:36:41.747Z,6.07
2023-04-30T08:39:08.337Z,4.20
2023-04-30T08:41:36.685Z,6.63
2023-04-30T08:44:04.764Z,5.45
2023-04-30T08:46:35.460Z,5.93
2023-04-30T08:49:02.241Z,5.95
2023-04-30T08:51:31.725Z,7.93
2023-04-30T08:53:58.258Z,7.05
2023-04-30T08:56:26.393Z,8.90
2023-04-30T08:58:53.007Z,6.65
2023-04-30T09:01:19.978Z,6.75
2023-04-30T09:03:46.725Z,5.55
2023-04-30T09:06:17.373Z,3.78
2023-04-30T09:08:50.654Z,6.78
2023-04-30T09:11:35.212Z,4.68
2023-04-30T09:14:02.664Z,3.75
2023-04-30T09:16:44.183Z,3.78
2023-04-30T09:19:26.467Z,3.47
2023-04-30T09:21:53.550Z,5.63
2023-04-30T09:24:20.212Z,5.82
2023-04-30T09:26:47.772Z,3.97
2023-04-30T09:29:14.961Z,5.65
2023-04-30T09:31:46.940Z,4.00
2023-04-30T09:34:14.469Z,4.25
2023-04-30T09:36:57.109Z,2.58
2023-04-30T09:39:23.970Z,3.17
2023-04-30T09:41:52.327Z,3.92
2023-04-30T09:44:32.185Z,4.07
2023-04-30T09:47:01.132Z,3.53
2023-04-30T09:49:28.105Z,4.85
2023-04-30T09:52:01.578Z,3.90
2023-04-30T09:54:30.785Z,2.15
2023-04-30T09:56:59.187Z,2.55
2023-04-30T09:59:35.269Z,3.90
2023-04-30T10:02:04.604Z,6.05
2023-04-30T10:04:36.930Z,6.78
2023-04-30T10:07:14.069Z,5.38
2023-04-30T10:09:46.435Z,4.95
2023-04-30T10:12:16.044Z,4.88
2023-04-30T10:14:51.299Z,4.32
2023-04-30T10:17:18.420Z,3.67
2023-04-30T10:19:49.705Z,5.32
2023-04-30T10:22:16.748Z,4.32
2023-04-30T10:24:44.714Z,6.18
2023-04-30T10:27:11.968Z,4.78
2023-04-30T10:29:38.476Z,5.38
2023-04-30T10:32:06.149Z,4.47
2023-04-30T10:34:43.046Z,5.15
2023-04-30T10:37:22.102Z,3.05
2023-04-30T10:39:49.723Z,7.47
2023-04-30T10:42:16.349Z,5.07
2023-04-30T10:44:43.013Z,4.65
2023-04-30T10:47:09.606Z,4.50
2023-04-30T10:49:36.401Z,3.65
2023-04-30T10:52:04.914Z,6.68
2023-04-30T10:54:35.872Z,4.10
2023-04-30T10:57:17.688Z,2.97
2023-04-30T10:59:52.460Z,3.75
2023-04-30T11:02:19.238Z,4.38
2023-04-30T11:05:07.733Z,6.75
2023-04-30T11:07:34.946Z,11.18
2023-04-30T11:10:02.472Z,3.83
2023-04-30T11:12:29.709Z,4.72
2023-04-30T11:15:17.832Z,2.22
2023-04-30T11:17:46.087Z,3.55
2023-04-30T11:20:14.597Z,3.13
2023-04-30T11:22:41.550Z,4.50
2023-04-30T11:25:13.163Z,3.10
2023-04-30T11:27:46.652Z,4.22
2023-04-30T11:30:18.480Z,3.33
2023-04-30T11:32:47.659Z,3.53
2023-04-30T11:35:18.795Z,3.53
2023-04-30T11:37:46.324Z,4.38
2023-04-30T11:40:14.505Z,3.22
2023-04-30T11:42:46.119Z,2.70
2023-04-30T11:45:20.622Z,2.33
2023-04-30T11:47:48.925Z,4.70
2023-04-30T11:50:17.665Z,4.72
2023-04-30T11:52:49.966Z,2.45
2023-04-30T11:55:18.124Z,3.72
2023-04-30T11:57:46.740Z,2.15
2023-04-30T12:00:21.066Z,3.72
2023-04-30T12:02:49.527Z,5.70
2023-04-30T12:05:20.781Z,3.28
2023-04-30T12:08:08.945Z,3.08
2023-04-30T12:10:36.380Z,4.45
2023-04-30T12:13:04.014Z,10.18
2023-04-30T12:15:30.611Z,6.05
2023-04-30T12:17:59.198Z,2.58
2023-04-30T12:20:29.243Z,3.40
2023-04-30T12:23:00.002Z,3.03
2023-04-30T12:25:28.855Z,2.03
2023-04-30T12:27:55.606Z,2.38
2023-04-30T12:30:24.852Z,2.50
2023-04-30T12:32:53.381Z,3.90
2023-04-30T12:35:22.581Z,3.25
2023-04-30T12:37:53.670Z,2.55
2023-04-30T12:40:22.260Z,5.25
2023-04-30T12:42:48.929Z,8.38
2023-04-30T12:45:48.218Z,3.03
2023-04-30T12:48:15.959Z,3.22
2023-04-30T12:50:43.320Z,2.30
2023-04-30T12:53:10.055Z,3.75
2023-04-30T12:55:37.874Z,3.17
2023-04-30T12:58:12.964Z,1.90
2023-04-30T13:00:51.343Z,4.22
2023-04-30T13:03:21.071Z,1.75
2023-04-30T13:05:50.046Z,4.85
2023-04-30T13:08:18.019Z,4.97
2023-04-30T13:10:46.468Z,3.25
2023-04-30T13:13:14.839Z,2.33
2023-04-30T13:15:42.997Z,4.60
2023-04-30T13:18:10.086Z,4.50
2023-04-30T13:20:36.875Z,3.22
2023-04-30T13:23:03.878Z,3.13
2023-04-30T13:25:31.987Z,1.92
2023-04-30T13:27:58.626Z,3.88
2023-04-30T13:30:25.504Z,1.52
2023-04-30T13:32:52.500Z,2.72
2023-04-30T13:35:19.352Z,2.33
2023-04-30T13:37:47.888Z,1.67
2023-04-30T13:40:15.335Z,4.40
2023-04-30T13:42:45.259Z,1.38
2023-04-30T13:45:12.693Z,0.80
2023-04-30T13:47:39.786Z,1.55
2023-04-30T13:50:08.474Z,1.70
2023-04-30T13:52:35.241Z,1.02
2023-04-30T13:55:02.188Z,2.60
2023-04-30T13:57:32.684Z,3.17
2023-04-30T13:59:59.645Z,1.10
2023-04-30T14:02:30.197Z,3.08
2023-04-30T14:05:05.219Z,0.82
2023-04-30T14:07:32.773Z,3.92
2023-04-30T14:09:59.667Z,1.08
2023-04-30T14:12:26.497Z,1.15
2023-04-30T14:14:53.109Z,1.35
2023-04-30T14:17:20.300Z,2.35
2023-04-30T14:19:47.179Z,5.03
2023-04-30T14:22:14.007Z,2.95
2023-04-30T14:24:40.881Z,2.25
2023-04-30T14:27:07.479Z,3.25
2023-04-30T14:29:34.025Z,2.33
2023-04-30T14:32:01.389Z,1.10
2023-04-30T14:34:27.993Z,2.25
2023-04-30T14:36:54.856Z,0.73
2023-04-30T14:39:21.351Z,1.83
2023-04-30T14:41:47.884Z,1.50
2023-04-30T14:44:14.487Z,2.38
2023-04-30T14:46:41.387Z,1.05
2023-04-30T14:49:08.045Z,4.15
2023-04-30T14:51:34.670Z,1.70
2023-04-30T14:54:02.395Z,3.85
2023-04-30T14:56:29.090Z,3.13
2023-04-30T14:58:55.615Z,0.80
2023-04-30T15:01:22.406Z,1.38
2023-04-30T15:03:49.234Z,3.25
2023-04-30T15:06:16.290Z,10.13
2023-04-30T15:08:43.051Z,5.15
2023-04-30T15:11:10.655Z,2.63
2023-04-30T15:13:37.501Z,0.95
2023-04-30T15:16:04.701Z,0.90
2023-04-30T15:18:31.941Z,3.30
2023-04-30T15:20:58.844Z,1.20
2023-04-30T15:23:25.359Z,1.65
2023-04-30T15:25:51.989Z,1.58
2023-04-30T15:28:19.430Z,1.55
2023-04-30T15:30:46.195Z,2.25
2023-04-30T15:33:12.764Z,2.35
2023-04-30T15:35:39.817Z,2.88
2023-04-30T15:38:06.686Z,0.70
2023-04-30T15:40:33.218Z,1.73
2023-04-30T15:42:59.743Z,1.83
2023-04-30T15:45:27.824Z,3.83
2023-04-30T15:47:54.388Z,2.85
2023-04-30T15:50:21.323Z,3.63
2023-04-30T15:52:47.857Z,3.45
2023-04-30T15:55:14.468Z,2.55
2023-04-30T15:57:41.028Z,6.70
2023-04-30T16:00:08.771Z,0.82
2023-04-30T16:02:41.300Z,2.55
2023-04-30T16:05:08.298Z,2.65
2023-04-30T16:07:35.261Z,2.22
2023-04-30T16:10:02.950Z,2.22
2023-04-30T16:12:30.014Z,2.25
2023-04-30T16:14:56.659Z,6.80
2023-04-30T16:17:24.274Z,1.70
2023-04-30T16:19:50.920Z,1.77
2023-04-30T16:22:18.397Z,2.50
2023-04-30T16:24:45.106Z,2.83
2023-04-30T16:27:11.708Z,4.30
2023-04-30T16:29:38.359Z,2.83
2023-04-30T16:32:05.111Z,5.03
2023-04-30T16:34:31.662Z,1.50
2023-04-30T16:36:58.186Z,2.00
2023-04-30T16:39:24.830Z,3.70
2023-04-30T16:41:51.439Z,0.75
2023-04-30T16:44:17.918Z,2.25
2023-04-30T16:46:44.563Z,2.95
2023-04-30T16:49:11.041Z,1.77
2023-04-30T16:51:37.739Z,2.55
2023-04-30T16:54:04.216Z,2.35
2023-04-30T16:56:30.925Z,3.63
2023-04-30T16:58:57.434Z,2.08
2023-04-30T17:01:24.172Z,1.95
2023-04-30T17:03:51.472Z,1.50
2023-04-30T17:06:18.282Z,1.70
2023-04-30T17:08:44.924Z,12.60
2023-04-30T17:11:11.628Z,1.85
2023-04-30T17:13:38.265Z,6.75
2023-04-30T17:16:05.197Z,0.82
2023-04-30T17:18:32.282Z,2.72
2023-04-30T17:20:58.935Z,2.63
2023-04-30T17:23:25.581Z,4.50
2023-04-30T17:25:52.262Z,1.77
2023-04-30T17:28:18.745Z,2.38
2023-04-30T17:30:45.520Z,2.08
2023-04-30T17:33:12.220Z,2.17
2023-04-30T17:35:38.855Z,1.92
2023-04-30T17:38:05.380Z,3.05
2023-04-30T17:40:32.524Z,3.67
2023-04-30T17:42:59.014Z,2.53
2023-04-30T17:45:26.673Z,2.40
2023-04-30T17:47:53.328Z,3.17
2023-04-30T17:50:19.945Z,2.72
2023-04-30T17:52:46.635Z,3.30
2023-04-30T17:55:13.625Z,2.75
2023-04-30T17:57:40.136Z,4.97
2023-04-30T18:00:07.384Z,3.25
2023-04-30T18:02:40.019Z,2.47
2023-04-30T18:05:06.882Z,1.50
2023-04-30T18:07:33.446Z,2.78
2023-04-30T18:10:00.294Z,2.88
2023-04-30T18:12:27.128Z,1.52
2023-04-30T18:14:53.832Z,3.90
2023-04-30T18:17:20.353Z,2.25
2023-04-30T18:19:48.589Z,3.97
2023-04-30T18:22:15.270Z,1.35
2023-04-30T18:24:42.352Z,2.25
2023-04-30T18:27:09.965Z,0.88
2023-04-30T18:29:37.008Z,2.53
2023-04-30T18:32:03.658Z,3.72
2023-04-30T18:34:30.279Z,1.65
2023-04-30T18:36:57.010Z,2.83
2023-04-30T18:39:23.521Z,1.73
2023-04-30T18:41:51.369Z,1.85
2023-04-30T18:44:19.096Z,3.65
2023-04-30T18:46:45.682Z,3.85
2023-04-30T18:49:13.582Z,2.65
2023-04-30T18:51:40.219Z,4.90
2023-04-30T18:54:06.676Z,4.68
2023-04-30T18:56:33.241Z,1.45
2023-04-30T18:58:59.728Z,3.17
2023-04-30T19:01:27.189Z,9.75
2023-04-30T19:03:54.249Z,1.98
2023-04-30T19:06:21.059Z,5.72
2023-04-30T19:08:47.908Z,2.45
2023-04-30T19:11:14.903Z,6.18
2023-04-30T19:13:41.455Z,4.18
2023-04-30T19:16:08.223Z,3.92
2023-04-30T19:18:35.098Z,4.28
2023-04-30T19:21:02.194Z,3.67
2023-04-30T19:23:30.168Z,1.50
2023-04-30T19:25:57.844Z,2.40
2023-04-30T19:28:24.553Z,2.80
2023-04-30T19:30:54.065Z,8.70
2023-04-30T19:33:22.069Z,6.78
2023-04-30T19:35:49.722Z,3.45
2023-04-30T19:38:17.010Z,3.22
2023-04-30T19:40:51.951Z,5.30
2023-04-30T19:43:19.870Z,2.35
2023-04-30T19:45:50.243Z,7.65
2023-04-30T19:48:17.483Z,3.70
2023-04-30T19:50:47.528Z,5.68
2023-04-30T19:53:16.214Z,7.10
2023-04-30T19:55:43.759Z,4.90
2023-04-30T19:58:10.370Z,4.80
2023-04-30T20:00:38.385Z,3.40
2023-04-30T20:03:05.416Z,2.78
2023-04-30T20:05:33.395Z,1.75
2023-04-30T20:08:00.005Z,3.03
2023-04-30T20:10:27.084Z,6.47
2023-04-30T20:12:54.376Z,2.13
2023-04-30T20:15:22.493Z,4.20
2023-04-30T20:17:50.293Z,2.58
2023-04-30T20:20:17.998Z,8.40
2023-04-30T20:22:44.602Z,3.25
2023-04-30T20:25:11.080Z,2.75
2023-04-30T20:27:37.693Z,3.45
2023-04-30T20:30:05.269Z,3.85
2023-04-30T20:32:31.926Z,3.50
2023-04-30T20:34:58.861Z,3.33
2023-04-30T20:37:25.568Z,2.20
2023-04-30T20:39:52.226Z,5.88
2023-04-30T20:42:19.720Z,2.97
2023-04-30T20:44:47.327Z,3.33
2023-04-30T20:47:16.900Z,5.80
2023-04-30T20:49:43.826Z,3.30
2023-04-30T20:52:12.097Z,2.63
2023-04-30T20:54:39.035Z,3.53
2023-04-30T20:57:05.982Z,4.68
2023-04-30T20:59:32.682Z,3.60
2023-04-30T21:01:59.251Z,2.60
2023-04-30T21:04:25.893Z,2.72
2023-04-30T21:06:52.726Z,2.53
2023-04-30T21:09:19.372Z,4.57
2023-04-30T21:11:46.043Z,3.85
2023-04-30T21:14:12.713Z,2.30
2023-04-30T21:16:40.708Z,5.95
2023-04-30T21:19:07.506Z,3.22
2023-04-30T21:21:34.561Z,2.20
2023-04-30T21:24:01.132Z,4.53
2023-04-30T21:26:28.144Z,3.65
2023-04-30T21:28:54.777Z,8.13
2023-04-30T21:31:21.491Z,6.30
2023-04-30T21:33:48.080Z,2.83
2023-04-30T21:36:16.401Z,3.88
2023-04-30T21:38:43.067Z,4.45
2023-04-30T21:41:16.862Z,5.60
2023-04-30T21:43:44.065Z,3.78
2023-04-30T21:46:10.933Z,1.83
2023-04-30T21:48:38.345Z,6.68
2023-04-30T21:51:16.708Z,1.95
2023-04-30T21:53:44.417Z,1.38
2023-04-30T21:56:11.656Z,3.58
2023-04-30T21:58:39.140Z,6.03
2023-04-30T22:01:06.174Z,4.65
2023-04-30T22:03:33.624Z,2.67
2023-04-30T22:06:00.617Z,2.78
2023-04-30T22:08:27.917Z,1.92
2023-04-30T22:11:00.783Z,3.47
2023-04-30T22:13:28.217Z,3.30
2023-04-30T22:15:55.259Z,1.65
2023-04-30T22:18:22.808Z,1.85
2023-04-30T22:20:50.016Z,4.85
2023-04-30T22:23:17.259Z,4.28
2023-04-30T22:25:43.904Z,3.42
2023-04-30T22:28:10.539Z,2.22
2023-04-30T22:30:37.711Z,3.72
2023-04-30T22:33:04.364Z,2.00
2023-04-30T22:35:32.625Z,4.43
2023-04-30T22:38:00.412Z,3.25
2023-04-30T22:40:27.197Z,6.47
2023-04-30T22:42:54.092Z,4.80
2023-04-30T22:45:20.796Z,1.70
2023-04-30T22:47:47.647Z,2.83
2023-04-30T22:50:14.253Z,5.47
2023-04-30T22:52:41.097Z,6.07
2023-04-30T22:55:08.190Z,4.35
2023-04-30T22:57:34.816Z,2.92
2023-04-30T23:00:01.667Z,3.30
2023-04-30T23:02:28.678Z,5.82
2023-04-30T23:04:55.353Z,5.40
2023-04-30T23:07:21.926Z,3.20
2023-04-30T23:09:48.664Z,3.97
2023-04-30T23:12:15.877Z,4.60
2023-04-30T23:14:42.447Z,5.22
2023-04-30T23:17:09.281Z,3.20
2023-04-30T23:19:36.024Z,3.30
2023-04-30T23:22:02.594Z,4.88
2023-04-30T23:24:34.918Z,3.72
2023-04-30T23:27:03.108Z,3.28
2023-04-30T23:29:29.712Z,3.72
2023-04-30T23:31:56.695Z,8.52
2023-04-30T23:34:23.416Z,4.90
2023-04-30T23:36:50.022Z,6.60
2023-04-30T23:39:16.753Z,4.72
2023-04-30T23:41:43.404Z,3.92
2023-04-30T23:44:10.226Z,6.35
2023-04-30T23:46:36.813Z,3.00
2023-04-30T23:49:03.660Z,4.40
2023-04-30T23:51:32.467Z,6.75
2023-04-30T23:53:59.104Z,4.25
2023-04-30T23:56:25.683Z,7.28
2023-04-30T23:58:52.195Z,7.07
